sensor_id;sensor_type;location;lat;lon;timestamp;pressure;altitude;pressure_sealevel;temperature;humidity
12073;BME280;6098;49.004;8.372;2022-08-07T00:04:03;100897.16;;;20.65;39.62
12073;BME280;6098;49.004;8.372;2022-08-07T00:18:52;100908.56;;;20.50;40.29
12073;BME280;6098;49.004;8.372;2022-08-07T00:33:43;100904.16;;;20.24;41.14
12073;BME280;6098;49.004;8.372;2022-08-07T00:48:33;100895.22;;;20.10;41.52
12073;BME280;6098;49.004;8.372;2022-08-07T01:03:24;100895.44;;;19.69;42.08
12073;BME280;6098;49.004;8.372;2022-08-07T01:18:15;100903.34;;;19.45;42.61
12073;BME280;6098;49.004;8.372;2022-08-07T01:33:05;100905.83;;;19.28;43.48
12073;BME280;6098;49.004;8.372;2022-08-07T01:47:56;100903.31;;;19.19;43.35
12073;BME280;6098;49.004;8.372;2022-08-07T02:02:54;100898.09;;;18.90;44.12
12073;BME280;6098;49.004;8.372;2022-08-07T02:17:47;100881.00;;;18.77;44.44
12073;BME280;6098;49.004;8.372;2022-08-07T02:32:38;100865.09;;;18.74;44.37
12073;BME280;6098;49.004;8.372;2022-08-07T02:47:29;100855.50;;;18.63;44.65
12073;BME280;6098;49.004;8.372;2022-08-07T03:02:20;100840.89;;;18.54;44.85
12073;BME280;6098;49.004;8.372;2022-08-07T03:17:11;100842.36;;;18.45;45.18
12073;BME280;6098;49.004;8.372;2022-08-07T03:32:04;100860.28;;;18.23;45.68
12073;BME280;6098;49.004;8.372;2022-08-07T03:46:55;100857.97;;;18.24;45.52
12073;BME280;6098;49.004;8.372;2022-08-07T04:01:46;100868.91;;;18.07;46.06
12073;BME280;6098;49.004;8.372;2022-08-07T04:16:37;100860.59;;;17.97;46.98
12073;BME280;6098;49.004;8.372;2022-08-07T04:31:28;100874.88;;;17.75;47.08
12073;BME280;6098;49.004;8.372;2022-08-07T05:16:56;100903.44;;;17.61;48.33
12073;BME280;6098;49.004;8.372;2022-08-07T05:31:47;100908.77;;;17.84;47.62
12073;BME280;6098;49.004;8.372;2022-08-07T05:46:39;100916.73;;;18.00;48.05
12073;BME280;6098;49.004;8.372;2022-08-07T06:01:30;100924.55;;;18.18;46.35
12073;BME280;6098;49.004;8.372;2022-08-07T06:16:21;100933.95;;;18.61;46.18
12073;BME280;6098;49.004;8.372;2022-08-07T06:31:13;100941.52;;;18.96;44.27
12073;BME280;6098;49.004;8.372;2022-08-07T06:46:05;100936.30;;;19.28;44.05
12073;BME280;6098;49.004;8.372;2022-08-07T07:00:57;100931.72;;;19.70;44.08
12073;BME280;6098;49.004;8.372;2022-08-07T07:15:50;100908.23;;;20.24;44.79
12073;BME280;6098;49.004;8.372;2022-08-07T07:30:44;100900.73;;;20.59;44.28
12073;BME280;6098;49.004;8.372;2022-08-07T07:45:34;100909.58;;;21.10;44.35
12073;BME280;6098;49.004;8.372;2022-08-07T08:00:26;100904.92;;;21.54;43.90
12073;BME280;6098;49.004;8.372;2022-08-07T08:15:18;100888.54;;;21.97;44.37
12073;BME280;6098;49.004;8.372;2022-08-07T08:30:11;100884.31;;;22.44;44.16
12073;BME280;6098;49.004;8.372;2022-08-07T08:45:25;100874.66;;;22.85;43.73
12073;BME280;6098;49.004;8.372;2022-08-07T09:00:17;100864.02;;;23.21;43.50
12073;BME280;6098;49.004;8.372;2022-08-07T09:30:17;100843.94;;;23.97;41.31
12073;BME280;6098;49.004;8.372;2022-08-07T10:47:17;100765.23;;;25.88;30.98
12073;BME280;6098;49.004;8.372;2022-08-07T11:02:15;100754.46;;;26.10;30.85
12073;BME280;6098;49.004;8.372;2022-08-07T11:17:10;100737.31;;;26.37;30.19
12073;BME280;6098;49.004;8.372;2022-08-07T11:32:07;100715.92;;;27.00;28.59
12073;BME280;6098;49.004;8.372;2022-08-07T11:47:21;100716.27;;;27.36;27.36
12073;BME280;6098;49.004;8.372;2022-08-07T12:17:10;100696.55;;;28.23;25.53
12073;BME280;6098;49.004;8.372;2022-08-07T12:32:08;100681.09;;;28.40;25.82
12073;BME280;6098;49.004;8.372;2022-08-07T12:47:12;100665.06;;;28.66;24.69
12073;BME280;6098;49.004;8.372;2022-08-07T13:33:27;100627.27;;;29.46;23.05
12073;BME280;6098;49.004;8.372;2022-08-07T13:48:23;100609.89;;;29.75;22.55
12073;BME280;6098;49.004;8.372;2022-08-07T14:03:15;100591.47;;;29.88;22.43
12073;BME280;6098;49.004;8.372;2022-08-07T14:18:23;100578.00;;;30.25;21.37
12073;BME280;6098;49.004;8.372;2022-08-07T14:33:18;100565.20;;;30.52;21.12
12073;BME280;6098;49.004;8.372;2022-08-07T14:48:11;100551.44;;;30.93;21.90
12073;BME280;6098;49.004;8.372;2022-08-07T15:03:05;100543.16;;;31.31;20.81
12073;BME280;6098;49.004;8.372;2022-08-07T15:18:00;100543.27;;;32.06;20.64
12073;BME280;6098;49.004;8.372;2022-08-07T15:32:53;100525.88;;;32.17;21.52
12073;BME280;6098;49.004;8.372;2022-08-07T15:47:47;100519.53;;;32.45;20.22
12073;BME280;6098;49.004;8.372;2022-08-07T16:02:42;100516.34;;;32.66;19.67
12073;BME280;6098;49.004;8.372;2022-08-07T16:17:59;100503.22;;;30.96;20.68
12073;BME280;6098;49.004;8.372;2022-08-07T16:33:07;100501.07;;;30.16;21.51
12073;BME280;6098;49.004;8.372;2022-08-07T18:04:26;100527.77;;;28.45;22.23
12073;BME280;6098;49.004;8.372;2022-08-07T18:34:20;100539.17;;;28.08;23.82
12073;BME280;6098;49.004;8.372;2022-08-07T18:49:16;100563.17;;;27.84;25.19
12073;BME280;6098;49.004;8.372;2022-08-07T19:04:27;100579.87;;;27.51;26.95
12073;BME280;6098;49.004;8.372;2022-08-07T19:19:43;100596.62;;;27.22;28.00
12073;BME280;6098;49.004;8.372;2022-08-07T19:34:35;100605.77;;;26.86;27.88
12073;BME280;6098;49.004;8.372;2022-08-07T19:49:25;100617.95;;;26.52;28.75
12073;BME280;6098;49.004;8.372;2022-08-07T20:04:17;100626.63;;;26.20;29.78
12073;BME280;6098;49.004;8.372;2022-08-07T20:19:08;100649.20;;;25.89;30.95
12073;BME280;6098;49.004;8.372;2022-08-07T20:33:59;100639.57;;;25.59;31.91
12073;BME280;6098;49.004;8.372;2022-08-07T20:48:51;100641.23;;;25.36;32.53
12073;BME280;6098;49.004;8.372;2022-08-07T21:03:54;100632.50;;;25.10;33.86
12073;BME280;6098;49.004;8.372;2022-08-07T21:18:44;100623.98;;;24.76;34.40
12073;BME280;6098;49.004;8.372;2022-08-07T21:48:44;100628.92;;;24.14;34.85
12073;BME280;6098;49.004;8.372;2022-08-07T22:03:38;100636.49;;;23.85;34.62
12073;BME280;6098;49.004;8.372;2022-08-07T22:33:45;100652.50;;;23.47;34.23
12073;BME280;6098;49.004;8.372;2022-08-07T23:49:51;100667.26;;;22.44;37.18
